Time;durP1;ratioP1;P1;durP2;ratioP2;P2;SDS_P1;SDS_P2;PMS_P1;PMS_P2;Temp;Humidity;BMP_temperature;BMP_pressure;BME280_temperature;BME280_humidity;BME280_pressure;Samples;Min_cycle;Max_cycle;Signal;HPM_P1;HPM_P2
2020/12/06 00:02:09;;;;;;;29.90;17.53;;;;;;;6.96;71.06;98054.34;3645465;81;21034;-77
2020/12/06 00:07:11;;;;;;;28.73;15.47;;;;;;;6.87;71.46;98046.73;3624366;82;21026;-77
2020/12/06 00:12:13;;;;;;;28.53;16.23;;;;;;;6.84;71.95;98044.08;3646175;81;21428;-76
2020/12/06 00:17:15;;;;;;;27.13;15.20;;;;;;;6.84;71.96;98053.41;3652438;80;21507;-76
2020/12/06 00:22:17;;;;;;;25.57;13.40;;;;;;;6.83;71.94;98051.02;3635286;79;20977;-76
2020/12/06 00:27:19;;;;;;;28.93;15.63;;;;;;;6.78;71.99;98057.72;3622170;79;21004;-76
2020/12/06 00:32:22;;;;;;;32.47;17.63;;;;;;;6.77;72.16;98048.14;3623041;82;21554;-76
2020/12/06 00:37:23;;;;;;;33.83;18.23;;;;;;;6.82;72.44;98059.52;3661721;80;20996;-76
2020/12/06 00:42:25;;;;;;;28.30;14.57;;;;;;;6.88;72.46;98058.94;3627366;80;21063;-76
2020/12/06 00:47:27;;;;;;;27.47;16.07;;;;;;;6.97;72.60;98062.59;3629353;81;20985;-76
2020/12/06 00:52:31;;;;;;;29.47;15.90;;;;;;;7.14;72.61;98056.03;3648184;81;21055;-76
2020/12/06 00:57:33;;;;;;;29.43;16.47;;;;;;;7.32;72.61;98061.95;3606815;81;21044;-76
2020/12/06 01:02:35;;;;;;;27.00;14.80;;;;;;;7.44;72.16;98058.08;3624028;81;21031;-76
2020/12/06 01:07:41;;;;;;;33.20;17.03;;;;;;;7.55;72.05;98052.88;3674416;80;20973;-76
2020/12/06 01:12:43;;;;;;;30.87;16.03;;;;;;;7.52;71.65;98055.57;3645761;81;21040;-76
2020/12/06 01:17:45;;;;;;;28.83;16.10;;;;;;;7.44;71.46;98062.08;3641349;80;21026;-76
2020/12/06 01:22:47;;;;;;;27.20;15.37;;;;;;;7.39;71.47;98060.80;3650881;81;21008;-76
2020/12/06 01:27:49;;;;;;;29.30;16.83;;;;;;;7.29;71.59;98057.20;3623625;81;21008;-76
2020/12/06 01:32:51;;;;;;;26.00;16.60;;;;;;;7.22;71.45;98053.27;3629840;81;21054;-76
2020/12/06 01:37:53;;;;;;;24.77;14.93;;;;;;;7.17;71.67;98058.13;3645727;80;21038;-76
2020/12/06 01:42:57;;;;;;;25.53;14.73;;;;;;;7.09;71.73;98050.20;3711112;80;20987;-76
2020/12/06 01:48:00;;;;;;;30.87;17.97;;;;;;;7.07;71.86;98049.70;3649731;81;21004;-76
2020/12/06 01:53:04;;;;;;;30.90;16.80;;;;;;;7.08;71.90;98046.49;3649821;81;21060;-76
2020/12/06 01:58:09;;;;;;;29.27;17.47;;;;;;;7.06;71.97;98042.00;3639958;81;21003;-76
2020/12/06 02:03:11;;;;;;;28.33;16.00;;;;;;;7.04;71.93;98034.30;3637405;81;20902;-76
2020/12/06 02:08:14;;;;;;;25.53;14.97;;;;;;;7.03;72.06;98022.83;3636655;81;21445;-76
2020/12/06 02:13:23;;;;;;;23.10;13.77;;;;;;;7.06;72.16;98015.37;3633974;81;21052;-76
2020/12/06 02:18:25;;;;;;;25.33;15.10;;;;;;;7.10;72.12;98011.84;3629172;81;21024;-76
2020/12/06 02:23:28;;;;;;;22.87;13.03;;;;;;;7.13;72.18;98023.81;3613694;82;21003;-76
2020/12/06 02:28:30;;;;;;;25.17;14.07;;;;;;;7.14;72.27;98018.19;3620578;81;21078;-76
2020/12/06 02:33:32;;;;;;;26.67;14.43;;;;;;;7.20;72.21;98017.59;3626384;81;21004;-76
2020/12/06 02:38:34;;;;;;;27.83;14.93;;;;;;;7.21;72.13;98027.73;3602541;81;20967;-76
2020/12/06 02:43:36;;;;;;;26.20;14.73;;;;;;;7.19;72.16;98029.32;3623463;81;21004;-76
2020/12/06 02:48:38;;;;;;;23.33;14.43;;;;;;;7.21;72.14;98020.52;3649837;81;21004;-76
2020/12/06 02:53:39;;;;;;;19.63;12.07;;;;;;;7.22;72.11;98016.78;3649705;81;21051;-76
2020/12/06 02:58:41;;;;;;;19.50;10.73;;;;;;;7.24;72.35;98017.83;3649829;81;21004;-76
2020/12/06 03:03:43;;;;;;;16.70;10.20;;;;;;;7.39;72.50;98020.83;3638096;81;21008;-77
2020/12/06 03:08:46;;;;;;;17.10;10.50;;;;;;;7.50;72.28;98024.43;3647179;81;21055;-76
2020/12/06 03:13:47;;;;;;;14.70;9.30;;;;;;;7.62;72.32;98031.99;3649923;81;21377;-76
2020/12/06 03:18:49;;;;;;;16.07;10.40;;;;;;;7.75;71.98;98029.70;3634119;81;21028;-76
2020/12/06 03:23:51;;;;;;;17.27;10.40;;;;;;;7.87;71.77;98023.41;3649690;81;21044;-76
2020/12/06 03:28:53;;;;;;;13.93;9.13;;;;;;;7.94;71.61;98019.05;3605809;81;20999;-76
2020/12/06 03:33:55;;;;;;;17.17;11.43;;;;;;;7.99;71.29;98017.65;3626789;81;21491;-76
2020/12/06 03:38:57;;;;;;;17.80;10.80;;;;;;;8.03;71.17;98017.30;3646152;81;20957;-76
2020/12/06 03:43:59;;;;;;;16.23;10.00;;;;;;;8.04;71.00;98012.22;3646271;81;21321;-76
2020/12/06 03:49:01;;;;;;;14.20;9.37;;;;;;;8.05;70.90;98012.48;3643054;80;21004;-76
2020/12/06 03:54:03;;;;;;;14.70;9.63;;;;;;;8.02;70.90;98011.18;3680606;78;20973;-76
2020/12/06 03:59:05;;;;;;;13.93;8.93;;;;;;;8.00;70.81;98022.69;3638569;81;21028;-76
2020/12/06 04:04:07;;;;;;;15.07;9.23;;;;;;;7.99;70.73;98022.98;3627592;81;21003;-76
2020/12/06 04:09:09;;;;;;;10.67;7.47;;;;;;;7.94;70.76;98020.38;3687268;80;21044;-76
2020/12/06 04:14:11;;;;;;;15.60;10.00;;;;;;;7.93;70.84;98032.13;3708124;79;20952;-76
2020/12/06 04:19:13;;;;;;;15.00;8.97;;;;;;;7.95;70.91;98014.75;3666498;80;21428;-76
2020/12/06 04:24:15;;;;;;;15.10;9.77;;;;;;;8.00;70.91;98014.69;3704015;80;21528;-76
2020/12/06 04:29:17;;;;;;;14.87;9.50;;;;;;;8.08;70.77;98019.89;3662593;79;21042;-76
2020/12/06 04:34:19;;;;;;;16.60;9.67;;;;;;;8.14;70.59;98012.08;3620882;82;21071;-76
2020/12/06 04:39:22;;;;;;;15.90;9.97;;;;;;;8.17;70.42;98012.02;3614858;81;21043;-76
2020/12/06 04:44:25;;;;;;;21.97;11.23;;;;;;;8.19;70.36;98009.87;3617344;82;21294;-75
2020/12/06 04:49:50;;;;;;;16.97;9.43;;;;;;;8.21;70.29;97995.68;3622746;82;21015;-75
2020/12/06 04:55:02;;;;;;;14.40;8.53;;;;;;;8.22;70.20;97992.72;3693999;79;21411;-75
2020/12/06 05:00:10;;;;;;;11.83;7.33;;;;;;;8.27;70.10;97985.72;3688261;80;21466;-76
2020/12/06 05:05:14;;;;;;;12.77;7.27;;;;;;;8.27;70.03;98005.20;3714582;79;21035;-76
2020/12/06 05:10:17;;;;;;;12.97;8.77;;;;;;;8.29;69.81;98014.25;3703819;80;21412;-76
2020/12/06 05:15:19;;;;;;;13.83;8.90;;;;;;;8.28;69.81;98016.14;3706950;78;21002;-76
2020/12/06 05:20:21;;;;;;;17.23;11.73;;;;;;;8.25;69.57;98029.25;3698286;80;21441;-76
2020/12/06 05:25:24;;;;;;;16.13;11.10;;;;;;;8.14;69.57;98024.09;3720246;78;21522;-76
2020/12/06 05:30:26;;;;;;;18.37;11.90;;;;;;;8.07;69.65;98032.19;3709433;78;21028;-76
2020/12/06 05:35:28;;;;;;;15.57;10.43;;;;;;;7.92;69.69;98043.34;3696055;80;21007;-76
2020/12/06 05:40:30;;;;;;;18.07;11.07;;;;;;;7.77;69.79;98048.34;3675072;80;21071;-76
2020/12/06 05:45:32;;;;;;;16.60;9.50;;;;;;;7.61;70.07;98048.28;3703028;80;21027;-76
2020/12/06 05:50:35;;;;;;;18.03;11.07;;;;;;;7.45;70.28;98054.34;3695066;80;21409;-76
2020/12/06 05:55:37;;;;;;;14.77;9.43;;;;;;;7.31;70.61;98062.23;3702660;80;21020;-75
2020/12/06 06:00:39;;;;;;;15.03;10.37;;;;;;;7.23;70.97;98060.19;3706000;80;20932;-74
2020/12/06 06:05:45;;;;;;;18.83;11.13;;;;;;;7.17;71.07;98066.90;3706640;80;21024;-76
2020/12/06 06:11:09;;;;;;;16.43;10.77;;;;;;;7.13;71.36;98075.20;3651548;81;21012;-74
2020/12/06 06:16:15;;;;;;;20.23;14.13;;;;;;;7.10;71.54;98063.78;3640262;81;21032;-75
2020/12/06 06:21:23;;;;;;;20.73;13.57;;;;;;;7.03;71.59;98070.77;3679339;80;21428;-75
2020/12/06 06:26:29;;;;;;;20.00;13.10;;;;;;;6.94;71.80;98075.14;3731503;78;21027;-76
2020/12/06 06:31:31;;;;;;;17.97;11.93;;;;;;;6.88;72.19;98068.80;3637742;81;21020;-75
2020/12/06 06:36:35;;;;;;;19.77;12.23;;;;;;;6.81;72.46;98068.61;3642855;81;21026;-76
2020/12/06 06:41:38;;;;;;;24.37;15.57;;;;;;;6.80;72.60;98075.52;3698632;77;21483;-76
2020/12/06 06:46:40;;;;;;;22.20;14.10;;;;;;;6.76;72.70;98083.29;3637649;80;20944;-75
2020/12/06 06:51:52;;;;;;;24.90;14.93;;;;;;;6.70;72.78;98088.37;3647730;80;21004;-76
2020/12/06 06:56:57;;;;;;;25.85;16.52;;;;;;;6.67;72.94;98090.28;3655407;81;47242;-76
2020/12/06 07:01:59;;;;;;;25.73;15.83;;;;;;;6.63;73.00;98091.39;3647062;81;21024;-76
2020/12/06 07:07:01;;;;;;;25.60;15.37;;;;;;;6.55;73.20;98094.64;3642830;81;21000;-76
2020/12/06 07:12:03;;;;;;;25.33;16.13;;;;;;;6.43;73.52;98092.88;3639073;81;21380;-75
2020/12/06 07:17:05;;;;;;;28.47;17.90;;;;;;;6.39;73.73;98089.95;3648239;80;21039;-76
2020/12/06 07:22:08;;;;;;;31.90;18.90;;;;;;;6.41;74.01;98073.71;3650491;80;20988;-76
2020/12/06 07:27:10;;;;;;;25.53;16.97;;;;;;;6.46;74.12;98076.34;3632149;80;21043;-75
2020/12/06 07:32:13;;;;;;;29.67;16.57;;;;;;;6.47;74.21;98067.30;3621751;81;20995;-75
2020/12/06 07:37:15;;;;;;;25.57;16.60;;;;;;;6.54;74.31;98081.08;3646965;81;21051;-75
2020/12/06 07:42:22;;;;;;;30.10;18.00;;;;;;;6.63;74.27;98082.59;3637988;81;21048;-76
2020/12/06 07:47:25;;;;;;;30.67;19.93;;;;;;;6.73;74.36;98077.20;3636419;80;21467;-75
2020/12/06 07:52:32;;;;;;;28.23;18.17;;;;;;;6.89;74.46;98069.07;3624659;82;20991;-75
2020/12/06 07:57:52;;;;;;;28.33;17.10;;;;;;;7.05;74.30;98071.03;3627803;81;21208;-76
2020/12/06 08:02:57;;;;;;;25.62;15.93;;;;;;;7.10;74.14;98078.98;3624331;80;21059;-76
2020/12/06 08:08:13;;;;;;;23.57;13.97;;;;;;;7.15;74.11;98081.05;3626950;81;20991;-77
2020/12/06 08:13:17;;;;;;;24.53;15.27;;;;;;;7.16;74.08;98088.49;3631817;81;20980;-76
2020/12/06 08:18:19;;;;;;;25.93;16.20;;;;;;;7.21;74.24;98089.78;3642518;80;21059;-77
2020/12/06 08:23:41;;;;;;;23.70;15.30;;;;;;;7.26;74.35;98092.40;3641868;80;21087;-76
2020/12/06 08:28:50;;;;;;;26.70;16.17;;;;;;;7.30;74.28;98088.09;3618929;80;21035;-77
2020/12/06 08:33:52;;;;;;;26.13;15.97;;;;;;;7.30;74.16;98085.95;3686390;80;21006;-76
2020/12/06 08:38:56;;;;;;;25.20;15.80;;;;;;;7.32;74.37;98081.93;3649606;81;21016;-76
2020/12/06 08:44:03;;;;;;;25.60;15.80;;;;;;;7.44;74.41;98084.19;3648202;81;20975;-75
2020/12/06 08:49:15;;;;;;;25.40;15.83;;;;;;;7.51;74.20;98081.18;3650688;81;21408;-75
2020/12/06 08:54:36;;;;;;;25.17;15.40;;;;;;;7.57;73.91;98073.39;3665361;80;21037;-75
2020/12/06 08:59:39;;;;;;;25.97;16.03;;;;;;;7.61;73.80;98077.08;3661322;81;21050;-75
2020/12/06 09:04:42;;;;;;;27.37;17.07;;;;;;;7.62;73.62;98067.20;3643432;80;21027;-74
2020/12/06 09:09:44;;;;;;;28.73;18.03;;;;;;;7.65;73.60;98062.63;3634563;79;21003;-74
2020/12/06 09:14:46;;;;;;;29.03;17.90;;;;;;;7.76;73.61;98058.73;3649301;79;21035;-75
2020/12/06 09:19:48;;;;;;;25.53;16.73;;;;;;;7.93;73.62;98063.58;3639496;81;20964;-74
2020/12/06 09:24:50;;;;;;;31.63;17.80;;;;;;;8.14;73.63;98049.43;3643604;81;20952;-72
2020/12/06 09:29:52;;;;;;;32.33;20.00;;;;;;;8.39;73.31;98055.44;3621015;79;21023;-72
2020/12/06 09:34:54;;;;;;;28.63;18.17;;;;;;;8.62;73.12;98048.44;3663964;81;21015;-72
2020/12/06 09:39:56;;;;;;;28.83;19.33;;;;;;;8.83;72.64;98036.08;3664270;81;21401;-71
2020/12/06 09:44:58;;;;;;;31.73;20.27;;;;;;;8.97;72.48;98038.20;3647365;81;21473;-72
2020/12/06 09:50:01;;;;;;;31.50;20.20;;;;;;;9.13;72.29;98020.00;3634675;81;20995;-72
2020/12/06 09:55:03;;;;;;;28.70;19.10;;;;;;;9.23;71.88;98016.34;3634541;79;21043;-73
2020/12/06 10:00:05;;;;;;;26.70;16.47;;;;;;;9.23;71.71;98006.98;3634635;81;21063;-76
2020/12/06 10:05:11;;;;;;;24.50;14.80;;;;;;;9.24;71.69;98012.58;3655898;80;21055;-76
2020/12/06 10:10:13;;;;;;;24.10;15.10;;;;;;;9.23;71.71;98010.98;3645964;80;21470;-71
2020/12/06 10:15:15;;;;;;;22.43;14.57;;;;;;;9.25;71.66;98008.83;3733240;78;21007;-72
2020/12/06 10:20:19;;;;;;;26.53;16.00;;;;;;;9.35;71.78;97999.25;3665171;80;20980;-74
2020/12/06 10:25:21;;;;;;;25.60;15.40;;;;;;;9.62;71.90;97998.17;3649413;81;21055;-73
2020/12/06 10:30:24;;;;;;;20.60;12.83;;;;;;;9.96;71.68;97991.53;3643400;81;21003;-73
2020/12/06 10:35:26;;;;;;;18.10;11.93;;;;;;;10.29;71.34;97990.74;3649434;80;21052;-74
2020/12/06 10:40:28;;;;;;;26.33;14.37;;;;;;;10.63;70.71;97979.23;3620382;81;20982;-73
2020/12/06 10:45:34;;;;;;;25.03;13.53;;;;;;;10.85;70.25;97978.39;3664821;79;21036;-72
2020/12/06 10:50:37;;;;;;;22.23;13.33;;;;;;;11.00;69.69;97971.27;3690600;79;21043;-73
2020/12/06 10:55:39;;;;;;;18.20;11.67;;;;;;;11.12;69.43;97966.11;3654362;79;20992;-73
2020/12/06 11:00:41;;;;;;;21.90;14.77;;;;;;;11.22;68.93;97956.98;3644741;79;20979;-73
2020/12/06 11:05:46;;;;;;;19.30;11.80;;;;;;;11.22;68.54;97950.81;3631007;81;20999;-73
2020/12/06 11:10:48;;;;;;;18.53;11.30;;;;;;;11.18;68.03;97950.67;3681123;80;21007;-73
2020/12/06 11:15:50;;;;;;;15.57;10.60;;;;;;;11.17;67.70;97950.42;3700557;78;20999;-73
2020/12/06 11:20:52;;;;;;;17.83;10.93;;;;;;;11.12;67.56;97945.20;3695611;80;21027;-73
2020/12/06 11:25:55;;;;;;;25.13;12.23;;;;;;;11.11;67.58;97944.41;3646177;79;21418;-73
2020/12/06 11:30:57;;;;;;;16.70;11.27;;;;;;;11.18;67.57;97947.17;3634159;80;21056;-73
2020/12/06 11:36:00;;;;;;;14.30;10.00;;;;;;;11.32;67.69;97940.34;3596196;80;21059;-73
2020/12/06 11:41:02;;;;;;;16.33;10.63;;;;;;;11.51;67.82;97939.50;3640684;80;20969;-73
2020/12/06 11:46:05;;;;;;;14.87;9.67;;;;;;;11.71;67.32;97934.61;3648247;80;21060;-74
2020/12/06 11:51:06;;;;;;;15.50;10.38;;;;;;;11.93;67.13;97935.81;3636995;81;20959;-74
2020/12/06 11:56:11;;;;;;;15.18;9.90;;;;;;;12.11;66.21;97931.20;3634615;81;21011;-74
2020/12/06 12:01:12;;;;;;;16.20;10.55;;;;;;;12.26;66.22;97935.29;3634274;81;21056;-74
2020/12/06 12:06:18;;;;;;;13.53;9.50;;;;;;;12.37;65.75;97936.28;3638543;81;21059;-74
2020/12/06 12:11:20;;;;;;;13.18;9.25;;;;;;;12.47;65.41;97931.36;3622270;81;21004;-74
2020/12/06 12:16:22;;;;;;;18.48;12.60;;;;;;;12.58;65.45;97941.77;3655796;81;21020;-74
2020/12/06 12:21:24;;;;;;;15.93;10.45;;;;;;;12.72;65.39;97949.06;3642063;80;21582;-74
2020/12/06 12:26:26;;;;;;;14.50;9.63;;;;;;;12.79;64.66;97939.16;3629250;80;21052;-74
2020/12/06 12:31:31;;;;;;;12.53;8.60;;;;;;;12.79;64.05;97942.63;3630563;81;21007;-74
2020/12/06 12:36:32;;;;;;;11.57;8.55;;;;;;;12.66;62.99;97939.58;3634904;81;21015;-74
2020/12/06 12:41:36;;;;;;;11.60;8.95;;;;;;;12.42;63.42;97943.64;3650620;80;21003;-73
2020/12/06 12:46:39;;;;;;;11.55;8.50;;;;;;;12.15;63.26;97934.83;3645090;80;20980;-74
2020/12/06 12:51:41;;;;;;;15.73;9.10;;;;;;;11.94;63.32;97932.59;3706589;79;21038;-74
2020/12/06 12:56:43;;;;;;;13.50;7.85;;;;;;;11.78;63.88;97926.34;3627732;81;21514;-73
2020/12/06 13:01:45;;;;;;;18.00;10.43;;;;;;;11.65;63.94;97923.25;3654152;80;21031;-73
2020/12/06 13:06:49;;;;;;;17.57;10.37;;;;;;;11.56;64.21;97910.41;3670125;80;21016;-73
2020/12/06 13:11:51;;;;;;;22.30;12.73;;;;;;;11.44;64.48;97902.45;3671340;80;21039;-73
2020/12/06 13:16:54;;;;;;;20.83;13.03;;;;;;;11.35;64.62;97892.81;3682151;79;20964;-74
2020/12/06 13:21:56;;;;;;;32.93;18.03;;;;;;;11.22;64.81;97895.86;3646798;80;21000;-74
2020/12/06 13:26:58;;;;;;;33.47;17.60;;;;;;;11.09;65.09;97894.90;3652021;79;21072;-73
2020/12/06 13:32:00;;;;;;;26.47;15.20;;;;;;;11.04;65.31;97889.67;3690524;79;21471;-73
2020/12/06 13:37:04;;;;;;;37.43;21.53;;;;;;;10.94;65.46;97906.84;3684603;80;21029;-74
2020/12/06 13:42:06;;;;;;;32.37;18.77;;;;;;;10.78;65.79;97899.80;3642819;79;21046;-74
2020/12/06 13:47:09;;;;;;;24.73;15.70;;;;;;;10.63;66.00;97905.02;3644175;80;21423;-73
2020/12/06 13:52:11;;;;;;;28.13;16.10;;;;;;;10.46;66.36;97898.27;3658032;80;21458;-74
2020/12/06 13:57:13;;;;;;;24.60;15.70;;;;;;;10.30;66.76;97891.14;3626008;81;20979;-74
2020/12/06 14:02:15;;;;;;;23.83;14.30;;;;;;;10.13;66.99;97901.21;3703729;80;21007;-73
2020/12/06 14:07:17;;;;;;;24.83;15.47;;;;;;;9.91;67.25;97898.81;3688418;79;20984;-73
2020/12/06 14:12:19;;;;;;;21.13;14.50;;;;;;;9.71;67.77;97892.05;3655082;79;21024;-73
2020/12/06 14:17:21;;;;;;;25.40;15.33;;;;;;;9.57;68.29;97904.17;3650540;80;21030;-73
2020/12/06 14:22:23;;;;;;;27.33;17.73;;;;;;;9.44;68.62;97897.75;3680477;79;20975;-73
2020/12/06 14:27:25;;;;;;;25.13;16.23;;;;;;;9.34;68.88;97896.09;3624647;80;21039;-73
2020/12/06 14:32:27;;;;;;;39.80;26.20;;;;;;;9.26;69.28;97880.77;3658647;81;20986;-73
2020/12/06 14:37:30;;;;;;;34.90;21.83;;;;;;;9.18;69.72;97889.53;3681749;79;21331;-73
2020/12/06 14:42:33;;;;;;;66.20;33.60;;;;;;;9.07;69.76;97872.36;3607848;81;21046;-73
2020/12/06 14:47:35;;;;;;;74.40;36.53;;;;;;;9.00;69.99;97861.86;3635660;81;21010;-73
2020/12/06 14:52:37;;;;;;;73.43;36.90;;;;;;;8.98;70.19;97869.36;3661343;79;20988;-73
2020/12/06 14:57:39;;;;;;;60.80;34.10;;;;;;;8.95;70.42;97864.63;3641470;80;21059;-73
2020/12/06 15:02:41;;;;;;;52.50;29.57;;;;;;;8.93;70.44;97855.58;3670218;80;20973;-73
2020/12/06 15:07:43;;;;;;;56.70;28.47;;;;;;;8.88;70.47;97861.02;3684695;79;21041;-73
2020/12/06 15:12:46;;;;;;;45.97;25.63;;;;;;;8.79;70.47;97854.27;3693126;79;20972;-73
2020/12/06 15:17:48;;;;;;;45.93;25.57;;;;;;;8.76;70.60;97852.72;3638449;81;21022;-73
2020/12/06 15:22:50;;;;;;;35.50;20.17;;;;;;;8.80;70.85;97848.36;3698598;80;21034;-72
2020/12/06 15:27:53;;;;;;;28.03;16.80;;;;;;;8.84;71.00;97850.69;3644751;80;20992;-74
2020/12/06 15:32:54;;;;;;;29.13;15.93;;;;;;;8.88;71.00;97847.66;3645276;81;20992;-73
2020/12/06 15:37:57;;;;;;;26.07;15.53;;;;;;;8.90;70.95;97835.59;3645296;81;21437;-74
2020/12/06 15:42:59;;;;;;;32.10;18.63;;;;;;;8.96;70.93;97821.58;3616399;81;21439;-72
2020/12/06 15:48:01;;;;;;;32.63;18.60;;;;;;;9.02;70.86;97808.38;3625788;81;21035;-72
2020/12/06 15:53:03;;;;;;;32.90;19.63;;;;;;;9.08;70.81;97814.39;3686160;80;20980;-74
2020/12/06 15:58:05;;;;;;;32.17;16.80;;;;;;;9.11;70.73;97811.11;3701971;80;21019;-73
2020/12/06 16:03:07;;;;;;;36.97;19.73;;;;;;;9.11;70.59;97818.31;3702172;80;20964;-73
2020/12/06 16:08:09;;;;;;;34.20;20.77;;;;;;;9.10;70.50;97823.44;3718873;78;20932;-74
2020/12/06 16:13:12;;;;;;;43.73;23.33;;;;;;;9.13;70.47;97818.82;3664080;78;21020;-74
2020/12/06 16:18:14;;;;;;;38.20;20.97;;;;;;;9.15;70.40;97819.30;3634937;81;21482;-73
2020/12/06 16:23:16;;;;;;;38.50;20.87;;;;;;;9.13;70.20;97815.59;3634725;81;21030;-73
2020/12/06 16:28:18;;;;;;;35.93;21.63;;;;;;;9.08;70.08;97817.06;3644671;79;21027;-74
2020/12/06 16:33:20;;;;;;;34.27;17.97;;;;;;;9.02;70.04;97815.05;3676844;79;21335;-73
2020/12/06 16:38:23;;;;;;;33.20;16.33;;;;;;;8.98;70.02;97815.41;3655498;79;21018;-73
2020/12/06 16:43:25;;;;;;;27.87;15.83;;;;;;;8.93;69.95;97808.84;3661881;79;21038;-73
2020/12/06 16:48:27;;;;;;;38.43;19.20;;;;;;;8.86;69.85;97817.81;3673377;80;21008;-73
2020/12/06 16:53:29;;;;;;;26.80;15.63;;;;;;;8.67;69.61;97817.38;3696727;79;21032;-74
2020/12/06 16:58:32;;;;;;;24.37;13.53;;;;;;;8.47;69.70;97815.14;3636900;81;21004;-74
2020/12/06 17:03:33;;;;;;;19.90;10.97;;;;;;;8.28;69.82;97817.34;3698464;80;21006;-73
2020/12/06 17:08:37;;;;;;;25.80;14.07;;;;;;;8.16;70.01;97813.81;3630091;81;21031;-74
2020/12/06 17:13:39;;;;;;;22.03;11.90;;;;;;;8.15;70.17;97824.78;3624257;81;20976;-74
2020/12/06 17:18:42;;;;;;;20.60;11.63;;;;;;;8.16;70.17;97829.83;3632731;81;21050;-73
2020/12/06 17:23:44;;;;;;;25.20;14.07;;;;;;;8.23;70.04;97824.10;3668554;80;20984;-74
2020/12/06 17:28:46;;;;;;;24.30;14.30;;;;;;;8.29;69.87;97823.46;3678540;78;21447;-74
2020/12/06 17:33:48;;;;;;;20.57;11.40;;;;;;;8.31;69.78;97814.08;3651326;81;21008;-73
2020/12/06 17:38:50;;;;;;;23.37;11.23;;;;;;;8.32;69.69;97809.52;3626466;81;21040;-74
2020/12/06 17:43:54;;;;;;;17.43;9.57;;;;;;;8.33;69.54;97812.45;3632195;81;21047;-74
2020/12/06 17:48:56;;;;;;;17.07;8.37;;;;;;;8.29;69.50;97831.47;3696397;79;21026;-74
2020/12/06 17:53:58;;;;;;;22.27;12.13;;;;;;;8.18;69.44;97838.86;3707690;79;21451;-74
2020/12/06 17:59:02;;;;;;;24.63;12.77;;;;;;;8.03;69.51;97841.25;3705529;80;21052;-74
2020/12/06 18:04:04;;;;;;;19.73;10.70;;;;;;;7.87;69.78;97848.19;3661758;80;21007;-74
2020/12/06 18:09:09;;;;;;;23.27;12.57;;;;;;;7.75;70.16;97848.41;3663624;81;20998;-73
2020/12/06 18:14:12;;;;;;;20.80;11.20;;;;;;;7.66;70.46;97853.07;3647636;81;21020;-73
2020/12/06 18:19:14;;;;;;;19.70;11.20;;;;;;;7.63;70.69;97858.99;3632983;81;21066;-74
2020/12/06 18:24:16;;;;;;;23.20;12.80;;;;;;;7.57;70.86;97858.84;3601424;80;21003;-73
2020/12/06 18:29:18;;;;;;;26.93;13.10;;;;;;;7.47;70.86;97850.45;3611287;81;21044;-73
2020/12/06 18:34:20;;;;;;;27.30;13.83;;;;;;;7.33;71.06;97863.72;3591119;81;21043;-74
2020/12/06 18:39:23;;;;;;;22.73;12.97;;;;;;;7.20;71.24;97860.44;3696732;78;20977;-74
2020/12/06 18:44:24;;;;;;;20.47;11.37;;;;;;;7.08;71.42;97864.06;3718316;78;21031;-74
2020/12/06 18:49:26;;;;;;;19.50;11.30;;;;;;;6.98;71.59;97868.46;3624464;80;20973;-74
2020/12/06 18:54:28;;;;;;;18.83;10.30;;;;;;;6.83;71.73;97869.99;3649919;80;20992;-73
2020/12/06 18:59:33;;;;;;;15.57;10.03;;;;;;;6.67;72.03;97868.85;3632520;79;21027;-74
2020/12/06 19:04:35;;;;;;;20.50;12.27;;;;;;;6.59;72.41;97872.66;3654845;81;20991;-72
2020/12/06 19:09:38;;;;;;;17.80;10.00;;;;;;;6.50;72.57;97879.15;3623842;81;21337;-74
2020/12/06 19:14:40;;;;;;;16.67;9.90;;;;;;;6.45;72.84;97871.21;3647897;79;21008;-74
2020/12/06 19:19:43;;;;;;;20.50;11.50;;;;;;;6.38;72.94;97868.91;3656456;81;20963;-73
2020/12/06 19:24:46;;;;;;;24.50;13.53;;;;;;;6.27;73.00;97862.91;3655477;79;21405;-73
2020/12/06 19:29:48;;;;;;;29.33;16.77;;;;;;;6.12;73.02;97859.07;3641798;79;20937;-73
2020/12/06 19:34:50;;;;;;;21.17;11.13;;;;;;;6.04;73.23;97864.45;3655936;81;21062;-73
2020/12/06 19:39:52;;;;;;;26.63;14.57;;;;;;;5.99;73.47;97849.89;3670163;79;21419;-74
2020/12/06 19:44:55;;;;;;;19.80;11.57;;;;;;;5.97;73.51;97842.20;3617305;79;21050;-74
2020/12/06 19:49:57;;;;;;;17.53;9.97;;;;;;;5.90;73.48;97839.57;3625021;82;21034;-74
2020/12/06 19:54:59;;;;;;;23.63;12.00;;;;;;;5.81;73.60;97836.73;3636421;81;20992;-73
2020/12/06 20:00:06;;;;;;;25.50;13.47;;;;;;;5.69;73.84;97848.27;3595960;81;21365;-73
2020/12/06 20:05:08;;;;;;;26.23;15.00;;;;;;;5.57;73.91;97862.70;3622182;81;21008;-74
2020/12/06 20:10:11;;;;;;;22.57;12.73;;;;;;;5.48;74.12;97874.98;3622762;81;21482;-73
2020/12/06 20:15:13;;;;;;;20.40;11.87;;;;;;;5.38;74.33;97888.34;3674808;79;20982;-74
2020/12/06 20:20:15;;;;;;;22.23;12.93;;;;;;;5.31;74.29;97884.66;3702646;80;21016;-74
2020/12/06 20:25:17;;;;;;;20.43;11.43;;;;;;;5.27;74.45;97880.97;3711396;79;20990;-73
2020/12/06 20:30:19;;;;;;;25.00;14.60;;;;;;;5.21;74.71;97864.81;3636537;80;21075;-72
2020/12/06 20:35:21;;;;;;;22.33;12.77;;;;;;;5.17;74.39;97858.47;3655486;80;21027;-74
2020/12/06 20:40:23;;;;;;;26.27;15.27;;;;;;;5.04;74.32;97856.68;3711358;79;20995;-74
2020/12/06 20:45:26;;;;;;;31.13;17.63;;;;;;;4.90;74.64;97859.69;3592399;81;21086;-74
2020/12/06 20:50:30;;;;;;;29.87;14.73;;;;;;;4.83;74.94;97853.86;3623047;82;21015;-73
2020/12/06 20:55:33;;;;;;;32.03;14.17;;;;;;;4.80;75.25;97861.85;3622792;81;21003;-73
2020/12/06 21:00:35;;;;;;;22.23;13.47;;;;;;;4.76;75.46;97862.13;3648050;80;21071;-74
2020/12/06 21:05:38;;;;;;;27.23;13.97;;;;;;;4.71;75.65;97862.93;3630739;79;20976;-74
2020/12/06 21:10:40;;;;;;;26.20;14.13;;;;;;;4.62;75.50;97869.34;3625919;80;21013;-74
2020/12/06 21:15:43;;;;;;;29.03;15.37;;;;;;;4.49;75.60;97865.95;3653329;81;21052;-73
2020/12/06 21:20:46;;;;;;;24.60;14.20;;;;;;;4.34;75.74;97860.67;3641853;80;20969;-74
2020/12/06 21:25:48;;;;;;;29.07;14.70;;;;;;;4.19;75.85;97862.30;3623487;80;21034;-74
2020/12/06 21:30:50;;;;;;;28.83;14.53;;;;;;;4.07;76.09;97849.36;3629101;80;21012;-75
2020/12/06 21:35:53;;;;;;;27.27;13.97;;;;;;;3.97;76.61;97847.25;3658934;79;21032;-74
2020/12/06 21:40:55;;;;;;;30.67;15.57;;;;;;;3.95;76.81;97848.84;3649599;81;21114;-73
2020/12/06 21:45:57;;;;;;;25.07;13.33;;;;;;;3.88;76.72;97853.08;3677111;80;21010;-74
2020/12/06 21:50:59;;;;;;;31.50;16.47;;;;;;;3.82;76.93;97852.03;3706118;78;21012;-74
2020/12/06 21:56:01;;;;;;;27.27;15.23;;;;;;;3.75;76.96;97852.31;3733768;78;20967;-74
2020/12/06 22:01:06;;;;;;;29.00;14.67;;;;;;;3.71;77.03;97849.39;3708182;80;20999;-74
2020/12/06 22:06:13;;;;;;;30.30;16.17;;;;;;;3.66;77.27;97828.20;3707841;80;21006;-74
2020/12/06 22:11:15;;;;;;;23.73;13.63;;;;;;;3.64;77.47;97829.00;3706001;79;21395;-74
2020/12/06 22:16:18;;;;;;;28.03;13.67;;;;;;;3.57;77.59;97831.92;3665299;80;20984;-74
2020/12/06 22:21:26;;;;;;;30.23;15.57;;;;;;;3.57;77.91;97823.97;3697614;80;21010;-75
2020/12/06 22:26:28;;;;;;;28.63;14.77;;;;;;;3.55;78.12;97820.81;3624105;79;21007;-73
2020/12/06 22:31:31;;;;;;;24.97;13.73;;;;;;;3.51;78.07;97814.97;3606394;80;21463;-73
2020/12/06 22:36:33;;;;;;;34.67;18.03;;;;;;;3.45;78.16;97808.88;3651794;81;21439;-73
2020/12/06 22:41:35;;;;;;;30.37;15.60;;;;;;;3.46;78.31;97806.50;3634587;81;21345;-73
2020/12/06 22:46:38;;;;;;;33.23;15.20;;;;;;;3.45;78.84;97800.15;3651942;81;21002;-74
2020/12/06 22:51:40;;;;;;;31.50;15.27;;;;;;;3.43;79.15;97783.20;3651832;81;21468;-73
2020/12/06 22:56:43;;;;;;;31.17;15.67;;;;;;;3.37;79.43;97781.60;3645424;81;21045;-73
2020/12/06 23:01:46;;;;;;;29.13;14.77;;;;;;;3.37;79.43;97781.60;3621074;81;21031;-74
2020/12/06 23:06:48;;;;;;;25.03;12.53;;;;;;;3.34;78.86;97780.27;3647560;81;20949;-73
2020/12/06 23:11:52;;;;;;;23.67;12.60;;;;;;;3.25;79.23;97772.08;3639436;81;21467;-74
2020/12/06 23:16:54;;;;;;;24.80;12.60;;;;;;;3.33;79.44;97771.28;3644704;80;21055;-74
2020/12/06 23:21:56;;;;;;;26.90;13.50;;;;;;;3.33;79.24;97765.98;3668225;79;21348;-73
2020/12/06 23:26:59;;;;;;;27.23;13.23;;;;;;;3.30;79.42;97761.23;3670608;79;20996;-73